sensor_id;sensor_type;location;lat;lon;timestamp;pressure;altitude;pressure_sealevel;temperature;humidity
10176;BME280;18221;38.704;0.152;2024-01-30T00:00:58;100365.19;;;17.09;51.03
10176;BME280;18221;38.704;0.152;2024-01-30T00:03:28;100371.41;;;17.10;50.86
10176;BME280;18221;38.704;0.152;2024-01-30T00:05:56;100378.25;;;17.22;50.60
10176;BME280;18221;38.704;0.152;2024-01-30T00:08:24;100372.44;;;17.26;50.58
10176;BME280;18221;38.704;0.152;2024-01-30T00:10:52;100375.31;;;17.15;50.71
10176;BME280;18221;38.704;0.152;2024-01-30T00:13:19;100377.06;;;17.07;50.91
10176;BME280;18221;38.704;0.152;2024-01-30T00:15:48;100381.09;;;17.20;50.63
10176;BME280;18221;38.704;0.152;2024-01-30T00:18:16;100375.31;;;17.15;50.72
10176;BME280;18221;38.704;0.152;2024-01-30T00:20:46;100374.31;;;17.16;50.60
10176;BME280;18221;38.704;0.152;2024-01-30T00:23:14;100378.09;;;17.23;50.55
10176;BME280;18221;38.704;0.152;2024-01-30T00:25:42;100378.81;;;17.25;50.49
10176;BME280;18221;38.704;0.152;2024-01-30T00:28:13;100372.03;;;17.21;50.44
10176;BME280;18221;38.704;0.152;2024-01-30T00:30:41;100380.38;;;17.18;50.51
10176;BME280;18221;38.704;0.152;2024-01-30T00:33:09;100373.88;;;17.21;50.62
10176;BME280;18221;38.704;0.152;2024-01-30T00:35:37;100365.28;;;17.17;50.69
10176;BME280;18221;38.704;0.152;2024-01-30T00:38:06;100359.19;;;17.15;50.64
10176;BME280;18221;38.704;0.152;2024-01-30T00:40:34;100363.69;;;17.24;50.45
10176;BME280;18221;38.704;0.152;2024-01-30T00:43:02;100366.84;;;17.10;50.77
10176;BME280;18221;38.704;0.152;2024-01-30T00:45:30;100367.97;;;17.17;50.44
10176;BME280;18221;38.704;0.152;2024-01-30T00:47:58;100372.78;;;17.14;50.30
10176;BME280;18221;38.704;0.152;2024-01-30T01:03:25;100365.72;;;17.13;50.63
10176;BME280;18221;38.704;0.152;2024-01-30T01:05:53;100360.63;;;17.19;50.49
10176;BME280;18221;38.704;0.152;2024-01-30T01:08:21;100356.22;;;17.18;50.51
10176;BME280;18221;38.704;0.152;2024-01-30T01:10:49;100359.94;;;17.17;50.44
10176;BME280;18221;38.704;0.152;2024-01-30T01:13:17;100358.28;;;17.07;50.68
10176;BME280;18221;38.704;0.152;2024-01-30T01:15:45;100358.78;;;17.20;50.39
10176;BME280;18221;38.704;0.152;2024-01-30T01:18:13;100361.19;;;17.13;50.44
10176;BME280;18221;38.704;0.152;2024-01-30T01:20:42;100359.81;;;17.09;50.67
10176;BME280;18221;38.704;0.152;2024-01-30T01:23:10;100358.97;;;17.09;50.63
10176;BME280;18221;38.704;0.152;2024-01-30T01:25:38;100362.22;;;17.03;50.84
10176;BME280;18221;38.704;0.152;2024-01-30T01:28:06;100364.97;;;16.93;51.28
10176;BME280;18221;38.704;0.152;2024-01-30T01:30:34;100357.59;;;16.95;51.22
10176;BME280;18221;38.704;0.152;2024-01-30T01:33:02;100357.78;;;16.94;51.35
10176;BME280;18221;38.704;0.152;2024-01-30T01:35:30;100353.38;;;16.93;51.34
10176;BME280;18221;38.704;0.152;2024-01-30T01:37:59;100355.31;;;17.00;50.69
10176;BME280;18221;38.704;0.152;2024-01-30T01:40:27;100356.34;;;16.99;51.08
10176;BME280;18221;38.704;0.152;2024-01-30T01:42:56;100360.41;;;17.03;50.88
10176;BME280;18221;38.704;0.152;2024-01-30T01:45:24;100351.63;;;16.74;51.40
10176;BME280;18221;38.704;0.152;2024-01-30T01:47:52;100357.66;;;16.86;51.35
10176;BME280;18221;38.704;0.152;2024-01-30T01:50:21;100353.19;;;16.67;51.75
10176;BME280;18221;38.704;0.152;2024-01-30T01:52:50;100352.78;;;16.62;51.98
10176;BME280;18221;38.704;0.152;2024-01-30T01:55:21;100355.31;;;16.73;51.46
10176;BME280;18221;38.704;0.152;2024-01-30T01:57:52;100349.34;;;16.79;51.67
10176;BME280;18221;38.704;0.152;2024-01-30T02:00:20;100354.56;;;16.81;51.93
10176;BME280;18221;38.704;0.152;2024-01-30T02:02:49;100349.84;;;16.92;51.41
10176;BME280;18221;38.704;0.152;2024-01-30T02:05:18;100337.19;;;16.85;51.52
10176;BME280;18221;38.704;0.152;2024-01-30T02:07:46;100336.13;;;16.68;51.97
10176;BME280;18221;38.704;0.152;2024-01-30T02:10:15;100336.25;;;16.66;52.33
10176;BME280;18221;38.704;0.152;2024-01-30T02:12:44;100332.94;;;16.55;52.57
10176;BME280;18221;38.704;0.152;2024-01-30T02:15:14;100337.22;;;16.75;52.10
10176;BME280;18221;38.704;0.152;2024-01-30T02:17:42;100331.97;;;16.83;51.78
10176;BME280;18221;38.704;0.152;2024-01-30T02:20:11;100336.94;;;16.68;52.49
10176;BME280;18221;38.704;0.152;2024-01-30T02:22:41;100323.81;;;16.75;52.24
10176;BME280;18221;38.704;0.152;2024-01-30T02:25:10;100330.88;;;16.76;52.30
10176;BME280;18221;38.704;0.152;2024-01-30T02:27:38;100326.09;;;16.70;52.30
10176;BME280;18221;38.704;0.152;2024-01-30T02:30:07;100330.78;;;16.58;52.86
10176;BME280;18221;38.704;0.152;2024-01-30T02:32:35;100334.53;;;16.75;52.35
10176;BME280;18221;38.704;0.152;2024-01-30T02:35:04;100328.31;;;16.75;52.37
10176;BME280;18221;38.704;0.152;2024-01-30T02:37:32;100330.47;;;16.71;52.46
10176;BME280;18221;38.704;0.152;2024-01-30T02:40:01;100326.19;;;16.78;52.19
10176;BME280;18221;38.704;0.152;2024-01-30T02:42:30;100323.69;;;16.67;52.52
10176;BME280;18221;38.704;0.152;2024-01-30T02:44:58;100322.72;;;16.68;52.54
10176;BME280;18221;38.704;0.152;2024-01-30T02:47:26;100323.03;;;16.92;52.02
10176;BME280;18221;38.704;0.152;2024-01-30T02:49:53;100314.69;;;16.95;51.72
10176;BME280;18221;38.704;0.152;2024-01-30T02:52:21;100316.09;;;16.99;51.59
10176;BME280;18221;38.704;0.152;2024-01-30T02:54:49;100309.81;;;16.81;51.92
10176;BME280;18221;38.704;0.152;2024-01-30T02:57:19;100321.06;;;16.85;52.01
10176;BME280;18221;38.704;0.152;2024-01-30T02:59:46;100312.38;;;16.73;52.24
10176;BME280;18221;38.704;0.152;2024-01-30T03:02:14;100314.72;;;16.86;51.94
10176;BME280;18221;38.704;0.152;2024-01-30T03:04:42;100312.50;;;16.81;51.98
10176;BME280;18221;38.704;0.152;2024-01-30T03:07:10;100302.81;;;16.71;52.57
10176;BME280;18221;38.704;0.152;2024-01-30T03:09:38;100309.09;;;16.79;52.60
10176;BME280;18221;38.704;0.152;2024-01-30T03:12:07;100303.22;;;16.66;52.65
10176;BME280;18221;38.704;0.152;2024-01-30T03:14:36;100306.22;;;16.63;52.91
10176;BME280;18221;38.704;0.152;2024-01-30T03:17:04;100306.34;;;16.71;52.75
10176;BME280;18221;38.704;0.152;2024-01-30T03:19:32;100305.38;;;16.90;52.62
10176;BME280;18221;38.704;0.152;2024-01-30T03:22:00;100304.56;;;16.89;52.37
10176;BME280;18221;38.704;0.152;2024-01-30T03:24:27;100307.78;;;16.93;52.24
10176;BME280;18221;38.704;0.152;2024-01-30T03:26:55;100304.75;;;16.78;52.39
10176;BME280;18221;38.704;0.152;2024-01-30T03:29:23;100303.44;;;16.82;52.53
10176;BME280;18221;38.704;0.152;2024-01-30T03:31:53;100306.78;;;16.94;52.30
10176;BME280;18221;38.704;0.152;2024-01-30T03:34:20;100304.41;;;16.91;52.33
10176;BME280;18221;38.704;0.152;2024-01-30T03:36:48;100304.84;;;16.86;52.33
10176;BME280;18221;38.704;0.152;2024-01-30T03:39:17;100312.16;;;16.94;52.38
10176;BME280;18221;38.704;0.152;2024-01-30T03:41:44;100312.69;;;16.97;52.37
10176;BME280;18221;38.704;0.152;2024-01-30T03:44:12;100308.63;;;16.93;52.37
10176;BME280;18221;38.704;0.152;2024-01-30T03:46:40;100318.91;;;16.98;52.14
10176;BME280;18221;38.704;0.152;2024-01-30T03:49:10;100309.19;;;16.97;52.25
10176;BME280;18221;38.704;0.152;2024-01-30T03:51:38;100311.75;;;16.89;52.38
10176;BME280;18221;38.704;0.152;2024-01-30T03:54:05;100308.22;;;16.88;52.36
10176;BME280;18221;38.704;0.152;2024-01-30T03:56:34;100308.47;;;16.95;52.47
10176;BME280;18221;38.704;0.152;2024-01-30T03:59:03;100315.22;;;16.99;52.26
10176;BME280;18221;38.704;0.152;2024-01-30T04:01:33;100312.09;;;17.03;52.19
10176;BME280;18221;38.704;0.152;2024-01-30T04:04:01;100314.66;;;17.05;52.13
10176;BME280;18221;38.704;0.152;2024-01-30T04:06:30;100310.38;;;17.12;51.92
10176;BME280;18221;38.704;0.152;2024-01-30T04:08:58;100310.50;;;17.10;51.95
10176;BME280;18221;38.704;0.152;2024-01-30T04:11:26;100315.56;;;17.13;51.92
10176;BME280;18221;38.704;0.152;2024-01-30T04:13:54;100317.63;;;17.02;52.31
10176;BME280;18221;38.704;0.152;2024-01-30T04:16:22;100308.28;;;17.06;52.23
10176;BME280;18221;38.704;0.152;2024-01-30T04:18:51;100321.59;;;16.98;52.46
10176;BME280;18221;38.704;0.152;2024-01-30T04:21:20;100314.69;;;16.95;52.56
10176;BME280;18221;38.704;0.152;2024-01-30T04:23:51;100314.53;;;16.97;52.56
10176;BME280;18221;38.704;0.152;2024-01-30T04:26:19;100314.84;;;16.94;52.57
10176;BME280;18221;38.704;0.152;2024-01-30T04:28:47;100319.50;;;16.92;52.64
10176;BME280;18221;38.704;0.152;2024-01-30T04:31:15;100321.63;;;16.88;52.92
10176;BME280;18221;38.704;0.152;2024-01-30T04:33:43;100322.28;;;17.00;52.59
10176;BME280;18221;38.704;0.152;2024-01-30T04:36:10;100317.16;;;17.06;52.48
10176;BME280;18221;38.704;0.152;2024-01-30T04:38:39;100312.78;;;17.05;52.58
10176;BME280;18221;38.704;0.152;2024-01-30T04:41:08;100320.84;;;17.05;52.37
10176;BME280;18221;38.704;0.152;2024-01-30T04:43:36;100314.88;;;17.11;52.29
10176;BME280;18221;38.704;0.152;2024-01-30T04:46:05;100322.03;;;16.93;52.71
10176;BME280;18221;38.704;0.152;2024-01-30T04:48:33;100321.00;;;17.04;52.55
10176;BME280;18221;38.704;0.152;2024-01-30T04:51:01;100327.50;;;17.01;52.59
10176;BME280;18221;38.704;0.152;2024-01-30T04:53:31;100321.06;;;16.94;52.80
10176;BME280;18221;38.704;0.152;2024-01-30T04:55:58;100325.69;;;16.92;52.88
10176;BME280;18221;38.704;0.152;2024-01-30T04:58:28;100317.25;;;16.87;53.13
10176;BME280;18221;38.704;0.152;2024-01-30T05:00:56;100329.06;;;17.04;52.91
10176;BME280;18221;38.704;0.152;2024-01-30T05:03:24;100327.06;;;17.06;52.81
10176;BME280;18221;38.704;0.152;2024-01-30T05:05:51;100327.59;;;17.09;52.79
10176;BME280;18221;38.704;0.152;2024-01-30T05:08:19;100329.91;;;17.04;52.90
10176;BME280;18221;38.704;0.152;2024-01-30T05:10:47;100324.66;;;17.03;52.89
10176;BME280;18221;38.704;0.152;2024-01-30T05:13:15;100317.81;;;16.91;53.02
10176;BME280;18221;38.704;0.152;2024-01-30T05:15:44;100325.50;;;16.76;53.37
10176;BME280;18221;38.704;0.152;2024-01-30T05:18:12;100326.03;;;16.80;53.25
10176;BME280;18221;38.704;0.152;2024-01-30T05:20:40;100329.97;;;16.85;52.92
10176;BME280;18221;38.704;0.152;2024-01-30T05:23:08;100326.34;;;16.77;53.08
10176;BME280;18221;38.704;0.152;2024-01-30T05:25:36;100328.59;;;16.81;53.21
10176;BME280;18221;38.704;0.152;2024-01-30T05:28:05;100329.69;;;16.88;53.21
10176;BME280;18221;38.704;0.152;2024-01-30T05:30:32;100326.03;;;16.80;53.37
10176;BME280;18221;38.704;0.152;2024-01-30T05:33:02;100333.63;;;16.84;53.13
10176;BME280;18221;38.704;0.152;2024-01-30T05:35:30;100333.16;;;16.71;53.56
10176;BME280;18221;38.704;0.152;2024-01-30T05:37:57;100330.66;;;16.87;53.51
10176;BME280;18221;38.704;0.152;2024-01-30T05:40:25;100330.03;;;16.76;53.40
10176;BME280;18221;38.704;0.152;2024-01-30T05:42:53;100339.34;;;16.81;53.31
10176;BME280;18221;38.704;0.152;2024-01-30T05:45:21;100329.56;;;16.80;53.29
10176;BME280;18221;38.704;0.152;2024-01-30T05:47:52;100337.78;;;16.79;53.36
10176;BME280;18221;38.704;0.152;2024-01-30T05:50:22;100330.59;;;16.70;53.20
10176;BME280;18221;38.704;0.152;2024-01-30T05:52:52;100332.31;;;16.61;53.40
10176;BME280;18221;38.704;0.152;2024-01-30T05:55:20;100324.59;;;16.58;53.09
10176;BME280;18221;38.704;0.152;2024-01-30T05:57:51;100334.25;;;16.68;53.24
10176;BME280;18221;38.704;0.152;2024-01-30T06:00:21;100335.97;;;16.70;53.12
10176;BME280;18221;38.704;0.152;2024-01-30T06:02:48;100329.91;;;16.67;52.85
10176;BME280;18221;38.704;0.152;2024-01-30T06:05:16;100331.09;;;16.55;53.05
10176;BME280;18221;38.704;0.152;2024-01-30T06:07:46;100336.88;;;16.60;52.85
10176;BME280;18221;38.704;0.152;2024-01-30T06:10:14;100346.75;;;16.60;52.69
10176;BME280;18221;38.704;0.152;2024-01-30T06:12:42;100353.38;;;16.56;52.92
10176;BME280;18221;38.704;0.152;2024-01-30T06:15:10;100359.28;;;16.59;52.78
10176;BME280;18221;38.704;0.152;2024-01-30T06:17:39;100351.78;;;16.73;52.63
10176;BME280;18221;38.704;0.152;2024-01-30T06:20:07;100359.53;;;16.66;52.91
10176;BME280;18221;38.704;0.152;2024-01-30T06:22:35;100359.53;;;16.66;52.52
10176;BME280;18221;38.704;0.152;2024-01-30T06:25:05;100364.91;;;16.76;52.51
10176;BME280;18221;38.704;0.152;2024-01-30T06:27:33;100363.97;;;16.57;52.67
10176;BME280;18221;38.704;0.152;2024-01-30T06:30:02;100364.53;;;16.42;53.09
10176;BME280;18221;38.704;0.152;2024-01-30T06:32:30;100372.88;;;16.58;52.94
10176;BME280;18221;38.704;0.152;2024-01-30T06:35:00;100372.66;;;16.69;52.62
10176;BME280;18221;38.704;0.152;2024-01-30T06:37:31;100374.13;;;16.54;52.61
10176;BME280;18221;38.704;0.152;2024-01-30T06:39:59;100374.84;;;16.37;53.05
10176;BME280;18221;38.704;0.152;2024-01-30T06:42:28;100382.47;;;16.32;53.29
10176;BME280;18221;38.704;0.152;2024-01-30T06:44:56;100375.53;;;16.39;53.27
10176;BME280;18221;38.704;0.152;2024-01-30T06:47:24;100380.91;;;16.39;53.40
10176;BME280;18221;38.704;0.152;2024-01-30T06:49:52;100382.34;;;16.52;53.09
10176;BME280;18221;38.704;0.152;2024-01-30T06:52:20;100377.50;;;16.46;52.96
10176;BME280;18221;38.704;0.152;2024-01-30T06:54:48;100378.34;;;16.37;53.40
10176;BME280;18221;38.704;0.152;2024-01-30T06:57:17;100380.47;;;16.43;53.05
10176;BME280;18221;38.704;0.152;2024-01-30T06:59:46;100377.78;;;16.43;53.12
10176;BME280;18221;38.704;0.152;2024-01-30T07:02:14;100380.47;;;16.53;52.99
10176;BME280;18221;38.704;0.152;2024-01-30T07:04:42;100384.69;;;16.46;53.27
10176;BME280;18221;38.704;0.152;2024-01-30T07:07:10;100389.25;;;16.55;52.85
10176;BME280;18221;38.704;0.152;2024-01-30T07:09:39;100385.66;;;16.64;52.84
10176;BME280;18221;38.704;0.152;2024-01-30T07:12:08;100385.84;;;16.62;52.94
10176;BME280;18221;38.704;0.152;2024-01-30T07:14:36;100387.25;;;16.57;53.01
10176;BME280;18221;38.704;0.152;2024-01-30T07:17:05;100386.41;;;16.47;53.24
10176;BME280;18221;38.704;0.152;2024-01-30T07:19:33;100395.13;;;16.49;53.19
10176;BME280;18221;38.704;0.152;2024-01-30T07:22:01;100393.88;;;16.53;53.43
10176;BME280;18221;38.704;0.152;2024-01-30T07:24:29;100396.41;;;16.64;53.36
10176;BME280;18221;38.704;0.152;2024-01-30T07:26:57;100395.53;;;16.63;53.03
10176;BME280;18221;38.704;0.152;2024-01-30T07:29:25;100406.84;;;16.48;53.57
10176;BME280;18221;38.704;0.152;2024-01-30T07:31:54;100409.69;;;16.65;53.29
10176;BME280;18221;38.704;0.152;2024-01-30T07:34:23;100403.50;;;16.55;53.17
10176;BME280;18221;38.704;0.152;2024-01-30T07:36:51;100405.75;;;16.60;53.30
10176;BME280;18221;38.704;0.152;2024-01-30T07:39:19;100409.13;;;16.62;53.38
10176;BME280;18221;38.704;0.152;2024-01-30T07:41:47;100409.69;;;16.65;53.30
10176;BME280;18221;38.704;0.152;2024-01-30T07:44:15;100410.50;;;16.66;53.25
10176;BME280;18221;38.704;0.152;2024-01-30T07:46:43;100424.59;;;16.78;53.08
10176;BME280;18221;38.704;0.152;2024-01-30T07:49:11;100416.72;;;16.76;52.89
10176;BME280;18221;38.704;0.152;2024-01-30T07:51:41;100421.34;;;16.84;52.69
10176;BME280;18221;38.704;0.152;2024-01-30T07:54:17;100421.22;;;16.66;52.93
10176;BME280;18221;38.704;0.152;2024-01-30T07:56:45;100423.75;;;16.77;52.95
10176;BME280;18221;38.704;0.152;2024-01-30T07:59:13;100429.69;;;16.81;52.70
10176;BME280;18221;38.704;0.152;2024-01-30T08:01:41;100426.31;;;16.79;52.59
10176;BME280;18221;38.704;0.152;2024-01-30T08:04:09;100434.66;;;16.66;53.08
10176;BME280;18221;38.704;0.152;2024-01-30T08:06:37;100432.63;;;16.87;52.62
10176;BME280;18221;38.704;0.152;2024-01-30T08:09:06;100437.50;;;17.11;52.05
10176;BME280;18221;38.704;0.152;2024-01-30T08:11:35;100437.78;;;17.08;51.89
10176;BME280;18221;38.704;0.152;2024-01-30T08:14:03;100438.50;;;17.00;51.96
10176;BME280;18221;38.704;0.152;2024-01-30T08:16:31;100446.97;;;17.05;51.82
10176;BME280;18221;38.704;0.152;2024-01-30T08:18:59;100447.38;;;17.20;51.59
10176;BME280;18221;38.704;0.152;2024-01-30T08:21:27;100453.88;;;17.17;51.58
10176;BME280;18221;38.704;0.152;2024-01-30T08:23:55;100448.50;;;17.08;51.53
10176;BME280;18221;38.704;0.152;2024-01-30T08:26:25;100455.53;;;17.18;51.32
10176;BME280;18221;38.704;0.152;2024-01-30T08:28:52;100455.75;;;17.07;51.72
10176;BME280;18221;38.704;0.152;2024-01-30T08:31:21;100461.19;;;17.15;51.24
10176;BME280;18221;38.704;0.152;2024-01-30T08:33:49;100461.19;;;17.25;51.15
10176;BME280;18221;38.704;0.152;2024-01-30T08:36:18;100467.94;;;17.39;50.90
10176;BME280;18221;38.704;0.152;2024-01-30T08:38:46;100465.53;;;17.36;50.72
10176;BME280;18221;38.704;0.152;2024-01-30T08:41:13;100467.53;;;17.34;50.57
10176;BME280;18221;38.704;0.152;2024-01-30T08:43:43;100473.88;;;17.33;50.73
10176;BME280;18221;38.704;0.152;2024-01-30T08:46:12;100467.53;;;17.34;50.58
10176;BME280;18221;38.704;0.152;2024-01-30T08:48:42;100461.00;;;17.36;50.69
10176;BME280;18221;38.704;0.152;2024-01-30T08:51:10;100473.50;;;17.55;50.33
10176;BME280;18221;38.704;0.152;2024-01-30T08:53:38;100468.44;;;17.42;50.42
10176;BME280;18221;38.704;0.152;2024-01-30T08:56:07;100475.50;;;17.53;50.23
10176;BME280;18221;38.704;0.152;2024-01-30T08:58:35;100485.38;;;17.52;50.25
10176;BME280;18221;38.704;0.152;2024-01-30T09:01:05;100486.13;;;17.54;50.13
10176;BME280;18221;38.704;0.152;2024-01-30T09:03:33;100490.28;;;17.66;50.13
10176;BME280;18221;38.704;0.152;2024-01-30T09:06:03;100486.91;;;17.64;50.02
10176;BME280;18221;38.704;0.152;2024-01-30T09:08:31;100484.53;;;17.61;50.29
10176;BME280;18221;38.704;0.152;2024-01-30T09:10:59;100489.06;;;17.51;50.48
10176;BME280;18221;38.704;0.152;2024-01-30T09:13:27;100487.78;;;17.65;50.50
10176;BME280;18221;38.704;0.152;2024-01-30T09:15:55;100493.22;;;17.73;50.30
10176;BME280;18221;38.704;0.152;2024-01-30T09:18:25;100489.06;;;17.88;50.28
10176;BME280;18221;38.704;0.152;2024-01-30T09:20:52;100491.94;;;17.77;50.38
10176;BME280;18221;38.704;0.152;2024-01-30T09:23:20;100496.00;;;17.81;50.55
10176;BME280;18221;38.704;0.152;2024-01-30T09:25:48;100498.41;;;17.57;51.08
10176;BME280;18221;38.704;0.152;2024-01-30T09:28:17;100503.63;;;17.85;50.82
10176;BME280;18221;38.704;0.152;2024-01-30T09:30:45;100508.25;;;17.93;50.56
10176;BME280;18221;38.704;0.152;2024-01-30T09:33:16;100506.94;;;17.97;50.58
10176;BME280;18221;38.704;0.152;2024-01-30T09:35:46;100500.84;;;17.77;50.90
10176;BME280;18221;38.704;0.152;2024-01-30T09:38:14;100501.72;;;17.96;51.08
10176;BME280;18221;38.704;0.152;2024-01-30T09:40:42;100505.00;;;17.89;51.13
10176;BME280;18221;38.704;0.152;2024-01-30T09:43:17;100511.94;;;17.92;51.22
10176;BME280;18221;38.704;0.152;2024-01-30T09:45:50;100508.84;;;17.87;51.45
10176;BME280;18221;38.704;0.152;2024-01-30T09:48:18;100513.22;;;17.88;51.61
10176;BME280;18221;38.704;0.152;2024-01-30T09:50:48;100515.41;;;18.02;51.50
10176;BME280;18221;38.704;0.152;2024-01-30T09:53:17;100519.16;;;17.64;52.40
10176;BME280;18221;38.704;0.152;2024-01-30T09:55:47;100515.69;;;17.99;51.71
10176;BME280;18221;38.704;0.152;2024-01-30T09:58:15;100527.84;;;18.03;51.74
10176;BME280;18221;38.704;0.152;2024-01-30T10:00:43;100531.50;;;18.29;51.46
10176;BME280;18221;38.704;0.152;2024-01-30T10:03:11;100530.56;;;18.21;51.54
10176;BME280;18221;38.704;0.152;2024-01-30T10:05:41;100531.97;;;18.25;51.11
10176;BME280;18221;38.704;0.152;2024-01-30T10:08:17;100531.72;;;18.18;51.15
10176;BME280;18221;38.704;0.152;2024-01-30T10:10:47;100530.47;;;18.30;50.98
10176;BME280;18221;38.704;0.152;2024-01-30T10:13:16;100531.53;;;18.47;50.71
10176;BME280;18221;38.704;0.152;2024-01-30T10:15:45;100532.34;;;18.83;50.02
10176;BME280;18221;38.704;0.152;2024-01-30T10:18:13;100530.66;;;18.99;49.75
10176;BME280;18221;38.704;0.152;2024-01-30T10:20:41;100530.91;;;19.14;49.17
10176;BME280;18221;38.704;0.152;2024-01-30T10:23:09;100532.81;;;18.96;49.08
10176;BME280;18221;38.704;0.152;2024-01-30T10:25:39;100532.94;;;18.69;49.01
10176;BME280;18221;38.704;0.152;2024-01-30T10:28:07;100540.84;;;18.70;49.25
10176;BME280;18221;38.704;0.152;2024-01-30T10:30:36;100538.34;;;18.94;48.91
10176;BME280;18221;38.704;0.152;2024-01-30T10:33:05;100541.34;;;18.91;48.71
10176;BME280;18221;38.704;0.152;2024-01-30T10:35:33;100532.28;;;18.92;48.81
10176;BME280;18221;38.704;0.152;2024-01-30T10:38:01;100533.75;;;18.87;48.99
10176;BME280;18221;38.704;0.152;2024-01-30T10:40:30;100530.00;;;19.23;48.28
10176;BME280;18221;38.704;0.152;2024-01-30T10:43:04;100537.47;;;19.55;47.71
10176;BME280;18221;38.704;0.152;2024-01-30T10:45:34;100534.75;;;19.29;47.58
10176;BME280;18221;38.704;0.152;2024-01-30T10:48:06;100531.03;;;19.56;47.16
10176;BME280;18221;38.704;0.152;2024-01-30T10:50:38;100520.16;;;19.65;46.31
10176;BME280;18221;38.704;0.152;2024-01-30T10:53:09;100528.69;;;19.35;46.69
10176;BME280;18221;38.704;0.152;2024-01-30T10:55:38;100530.94;;;19.65;46.07
10176;BME280;18221;38.704;0.152;2024-01-30T10:58:09;100528.41;;;19.64;45.85
10176;BME280;18221;38.704;0.152;2024-01-30T11:00:38;100516.84;;;19.80;45.86
10176;BME280;18221;38.704;0.152;2024-01-30T11:03:07;100517.38;;;19.83;45.46
10176;BME280;18221;38.704;0.152;2024-01-30T11:05:35;100511.63;;;19.44;45.53
10176;BME280;18221;38.704;0.152;2024-01-30T11:08:12;100510.94;;;19.76;45.10
10176;BME280;18221;38.704;0.152;2024-01-30T11:10:47;100505.16;;;19.37;45.77
10176;BME280;18221;38.704;0.152;2024-01-30T11:13:19;100505.81;;;19.57;45.60
10176;BME280;18221;38.704;0.152;2024-01-30T11:15:48;100507.72;;;19.39;45.96
10176;BME280;18221;38.704;0.152;2024-01-30T11:18:24;100505.25;;;19.28;46.31
10176;BME280;18221;38.704;0.152;2024-01-30T11:20:52;100503.72;;;19.25;46.14
10176;BME280;18221;38.704;0.152;2024-01-30T11:23:23;100501.88;;;19.26;46.39
10176;BME280;18221;38.704;0.152;2024-01-30T11:25:53;100504.72;;;19.76;45.56
10176;BME280;18221;38.704;0.152;2024-01-30T11:28:23;100503.31;;;19.71;45.33
10176;BME280;18221;38.704;0.152;2024-01-30T11:30:51;100498.16;;;19.44;45.72
10176;BME280;18221;38.704;0.152;2024-01-30T11:33:30;100491.75;;;19.45;45.61
10176;BME280;18221;38.704;0.152;2024-01-30T11:36:00;100479.00;;;19.47;45.54
10176;BME280;18221;38.704;0.152;2024-01-30T11:38:28;100480.91;;;19.63;44.52
10176;BME280;18221;38.704;0.152;2024-01-30T11:40:57;100482.81;;;19.79;44.58
10176;BME280;18221;38.704;0.152;2024-01-30T11:43:26;100480.88;;;19.97;44.44
10176;BME280;18221;38.704;0.152;2024-01-30T11:45:54;100474.41;;;19.90;44.63
10176;BME280;18221;38.704;0.152;2024-01-30T11:48:22;100469.28;;;19.62;44.98
10176;BME280;18221;38.704;0.152;2024-01-30T11:50:50;100472.78;;;19.55;45.31
10176;BME280;18221;38.704;0.152;2024-01-30T11:53:18;100469.25;;;19.54;45.16
10176;BME280;18221;38.704;0.152;2024-01-30T11:55:50;100463.22;;;19.60;45.19
10176;BME280;18221;38.704;0.152;2024-01-30T11:58:19;100460.88;;;19.65;44.93
10176;BME280;18221;38.704;0.152;2024-01-30T12:00:55;100453.84;;;19.81;44.52
10176;BME280;18221;38.704;0.152;2024-01-30T12:03:24;100460.84;;;19.57;44.65
10176;BME280;18221;38.704;0.152;2024-01-30T12:05:56;100457.09;;;19.50;44.78
10176;BME280;18221;38.704;0.152;2024-01-30T12:08:25;100452.38;;;19.44;44.68
10176;BME280;18221;38.704;0.152;2024-01-30T12:10:57;100448.47;;;19.13;45.49
10176;BME280;18221;38.704;0.152;2024-01-30T12:13:28;100434.16;;;19.38;44.93
10176;BME280;18221;38.704;0.152;2024-01-30T12:15:58;100446.13;;;19.44;45.23
10176;BME280;18221;38.704;0.152;2024-01-30T12:18:26;100450.69;;;19.18;45.40
10176;BME280;18221;38.704;0.152;2024-01-30T12:20:58;100443.81;;;19.57;45.08
10176;BME280;18221;38.704;0.152;2024-01-30T12:23:27;100443.56;;;19.42;44.90
10176;BME280;18221;38.704;0.152;2024-01-30T12:25:56;100435.53;;;19.50;44.76
10176;BME280;18221;38.704;0.152;2024-01-30T12:28:25;100438.56;;;19.47;44.86
10176;BME280;18221;38.704;0.152;2024-01-30T12:31:01;100437.63;;;19.64;44.64
10176;BME280;18221;38.704;0.152;2024-01-30T12:33:30;100437.88;;;19.45;44.56
10176;BME280;18221;38.704;0.152;2024-01-30T12:36:01;100423.81;;;19.34;45.10
10176;BME280;18221;38.704;0.152;2024-01-30T12:38:29;100422.19;;;19.83;44.56
10176;BME280;18221;38.704;0.152;2024-01-30T12:40:58;100413.44;;;19.97;43.90
10176;BME280;18221;38.704;0.152;2024-01-30T12:43:26;100421.19;;;19.84;43.60
10176;BME280;18221;38.704;0.152;2024-01-30T12:45:54;100419.06;;;19.61;43.87
10176;BME280;18221;38.704;0.152;2024-01-30T12:48:24;100427.69;;;19.65;43.60
10176;BME280;18221;38.704;0.152;2024-01-30T12:50:52;100422.44;;;19.63;43.76
10176;BME280;18221;38.704;0.152;2024-01-30T12:53:20;100414.75;;;19.85;43.50
10176;BME280;18221;38.704;0.152;2024-01-30T12:55:47;100415.50;;;20.19;43.36
10176;BME280;18221;38.704;0.152;2024-01-30T12:58:16;100402.19;;;20.33;42.90
10176;BME280;18221;38.704;0.152;2024-01-30T13:00:44;100404.41;;;20.54;42.64
10176;BME280;18221;38.704;0.152;2024-01-30T13:03:12;100408.09;;;20.61;42.63
10176;BME280;18221;38.704;0.152;2024-01-30T13:05:42;100404.91;;;20.58;43.05
10176;BME280;18221;38.704;0.152;2024-01-30T13:08:10;100400.34;;;20.74;42.49
10176;BME280;18221;38.704;0.152;2024-01-30T13:10:38;100392.88;;;20.92;42.36